Time;durP1;ratioP1;P1;durP2;ratioP2;P2;SDS_P1;SDS_P2;PMS_P1;PMS_P2;Temp;Humidity;BMP_temperature;BMP_pressure;BME280_temperature;BME280_humidity;BME280_pressure;Samples;Min_cycle;Max_cycle;Signal;HPM_P1;HPM_P2
2023/07/17 00:00:58;;;;;;;2.63;1.30;;;21.40;99.90;;;;;;5076445;28;20431;-60
2023/07/17 00:03:26;;;;;;;1.55;0.70;;;21.40;99.90;;;;;;5076624;28;20419;-60
2023/07/17 00:05:53;;;;;;;0.90;0.60;;;21.40;99.90;;;;;;5076088;28;20423;-60
2023/07/17 00:08:20;;;;;;;1.00;0.60;;;21.40;99.90;;;;;;5076485;28;20473;-60
2023/07/17 00:10:47;;;;;;;1.30;0.60;;;21.40;99.90;;;;;;5075825;28;20432;-60
2023/07/17 00:13:14;;;;;;;1.00;0.60;;;21.30;99.90;;;;;;5075723;28;20432;-60
2023/07/17 00:15:41;;;;;;;1.70;0.60;;;21.30;99.90;;;;;;5075575;28;20431;-59
2023/07/17 00:18:08;;;;;;;1.13;0.60;;;21.30;99.90;;;;;;5076244;28;20508;-60
2023/07/17 00:20:37;;;;;;;0.90;0.60;;;21.30;99.90;;;;;;5075952;28;20424;-60
2023/07/17 00:23:04;;;;;;;1.20;0.60;;;21.20;99.90;;;;;;5074656;28;20889;-60
2023/07/17 00:25:31;;;;;;;1.25;0.60;;;21.20;99.90;;;;;;5075108;28;20426;-59
2023/07/17 00:27:57;;;;;;;1.00;0.60;;;21.20;99.90;;;;;;5075915;28;21024;-60
2023/07/17 00:30:25;;;;;;;2.30;0.60;;;21.20;99.90;;;;;;5075843;28;20485;-60
2023/07/17 00:32:52;;;;;;;1.00;0.50;;;21.20;99.90;;;;;;5076199;28;20419;-60
2023/07/17 00:35:19;;;;;;;1.50;0.60;;;21.20;99.90;;;;;;5075449;28;20481;-60
2023/07/17 00:37:48;;;;;;;1.60;0.80;;;21.00;99.90;;;;;;5076093;28;20709;-59
2023/07/17 00:40:15;;;;;;;1.10;0.60;;;21.00;99.90;;;;;;5076190;28;20485;-60
2023/07/17 00:42:42;;;;;;;1.30;0.60;;;21.00;99.90;;;;;;5075125;28;20519;-60
2023/07/17 00:45:09;;;;;;;0.90;0.60;;;21.00;99.90;;;;;;5075441;28;20423;-60
2023/07/17 00:47:37;;;;;;;0.80;0.50;;;21.10;99.90;;;;;;5074908;28;20419;-60
2023/07/17 00:50:05;;;;;;;0.93;0.50;;;21.10;99.90;;;;;;5075415;28;20492;-60
2023/07/17 00:52:32;;;;;;;2.90;0.60;;;21.20;99.90;;;;;;5075012;28;20427;-60
2023/07/17 00:55:01;;;;;;;1.00;0.50;;;21.30;99.90;;;;;;5074010;28;20557;-60
2023/07/17 00:57:28;;;;;;;1.20;0.60;;;21.30;99.90;;;;;;5074165;28;20882;-60
2023/07/17 00:59:55;;;;;;;2.13;0.60;;;21.40;99.90;;;;;;5075454;28;20415;-60
2023/07/17 01:02:23;;;;;;;1.10;0.60;;;21.40;99.90;;;;;;5074379;28;20831;-60
2023/07/17 01:04:51;;;;;;;1.10;0.55;;;21.40;99.90;;;;;;5075296;28;20866;-60
2023/07/17 01:07:18;;;;;;;1.30;0.50;;;21.50;99.90;;;;;;5073359;28;20910;-59
2023/07/17 01:09:45;;;;;;;0.80;0.45;;;21.60;99.90;;;;;;5073255;28;20481;-60
2023/07/17 01:12:13;;;;;;;1.60;0.60;;;21.60;99.90;;;;;;5074622;28;20431;-60
2023/07/17 01:14:40;;;;;;;1.48;0.50;;;21.60;99.90;;;;;;5075056;28;20484;-60
2023/07/17 01:17:07;;;;;;;0.80;0.60;;;21.70;99.90;;;;;;5075520;28;20554;-60
2023/07/17 01:19:34;;;;;;;0.73;0.50;;;21.70;99.90;;;;;;5074932;28;20431;-61
2023/07/17 01:22:05;;;;;;;1.40;0.50;;;21.70;99.90;;;;;;5074651;28;20428;-60
2023/07/17 01:24:34;;;;;;;0.90;0.40;;;21.70;99.90;;;;;;5073824;28;20435;-60
2023/07/17 01:27:01;;;;;;;0.90;0.50;;;21.60;99.90;;;;;;5074032;28;20408;-60
2023/07/17 01:29:27;;;;;;;1.10;0.50;;;21.60;99.90;;;;;;5073572;28;20956;-60
2023/07/17 01:31:54;;;;;;;1.10;0.40;;;21.60;99.90;;;;;;5074749;28;20489;-60
2023/07/17 01:34:21;;;;;;;0.90;0.50;;;21.60;99.90;;;;;;5074819;28;20431;-60
2023/07/17 01:36:48;;;;;;;1.05;0.50;;;21.60;99.90;;;;;;5075117;28;20518;-60
2023/07/17 01:39:15;;;;;;;1.20;0.50;;;21.60;99.90;;;;;;5074317;28;20506;-61
2023/07/17 01:41:44;;;;;;;1.70;0.50;;;21.60;99.90;;;;;;5073864;28;20428;-60
2023/07/17 01:44:11;;;;;;;1.10;0.50;;;21.60;99.90;;;;;;5074149;28;20424;-59
2023/07/17 01:46:38;;;;;;;1.10;0.50;;;21.60;99.90;;;;;;5074181;28;20847;-60
2023/07/17 01:49:05;;;;;;;0.90;0.50;;;21.60;99.90;;;;;;5074345;28;20497;-59
2023/07/17 01:51:32;;;;;;;0.80;0.40;;;21.50;99.90;;;;;;5074904;28;20434;-60
2023/07/17 01:53:58;;;;;;;1.00;0.40;;;21.50;99.90;;;;;;5074659;28;20477;-59
2023/07/17 01:56:25;;;;;;;1.13;0.60;;;21.30;99.90;;;;;;5074418;28;20419;-59
2023/07/17 01:58:54;;;;;;;0.70;0.50;;;21.20;99.90;;;;;;5075194;28;20458;-59
2023/07/17 02:01:21;;;;;;;1.70;0.50;;;21.20;99.90;;;;;;5074730;28;20431;-59
2023/07/17 02:03:48;;;;;;;1.27;0.50;;;21.30;99.90;;;;;;5074128;28;20435;-59
2023/07/17 02:06:17;;;;;;;0.90;0.50;;;21.30;99.90;;;;;;5073884;28;20428;-59
2023/07/17 02:08:44;;;;;;;1.30;0.60;;;21.30;99.90;;;;;;5074331;28;20415;-59
2023/07/17 02:11:11;;;;;;;2.22;0.50;;;21.20;99.90;;;;;;5074538;28;20469;-59
2023/07/17 02:13:38;;;;;;;1.20;0.50;;;21.30;99.90;;;;;;5074316;28;20485;-59
2023/07/17 02:16:07;;;;;;;0.80;0.50;;;21.30;99.90;;;;;;5074662;28;20550;-63
2023/07/17 02:18:34;;;;;;;1.70;0.50;;;21.30;99.90;;;;;;5076309;28;20497;-59
2023/07/17 02:21:01;;;;;;;0.95;0.40;;;21.40;99.90;;;;;;5077945;28;20893;-59
2023/07/17 02:23:28;;;;;;;1.30;0.60;;;21.40;99.90;;;;;;5078483;28;20427;-59
2023/07/17 02:25:55;;;;;;;0.90;0.50;;;21.30;99.90;;;;;;5078778;28;20432;-59
2023/07/17 02:28:22;;;;;;;1.27;0.50;;;21.40;99.90;;;;;;5078715;28;20431;-59
2023/07/17 02:30:49;;;;;;;2.00;0.40;;;21.50;99.90;;;;;;5077829;28;20476;-60
2023/07/17 02:33:17;;;;;;;1.90;0.50;;;21.60;99.90;;;;;;5077583;28;20544;-59
2023/07/17 02:35:44;;;;;;;1.17;0.50;;;21.60;99.90;;;;;;5078043;28;20473;-59
2023/07/17 02:38:11;;;;;;;1.90;0.50;;;21.40;99.90;;;;;;5078050;28;20431;-59
2023/07/17 02:40:38;;;;;;;1.48;0.57;;;21.30;99.90;;;;;;5077764;28;20431;-60
2023/07/17 02:43:07;;;;;;;0.90;0.50;;;21.30;99.90;;;;;;5077629;28;20544;-59
2023/07/17 02:45:34;;;;;;;1.70;0.50;;;21.20;99.90;;;;;;5077830;28;20431;-59
2023/07/17 02:48:01;;;;;;;1.15;0.50;;;21.20;99.90;;;;;;5077956;28;20415;-59
2023/07/17 02:50:30;;;;;;;2.28;0.50;;;21.20;99.90;;;;;;5077623;28;20868;-60
2023/07/17 02:52:57;;;;;;;1.40;0.55;;;21.20;99.90;;;;;;5077777;28;20497;-60
2023/07/17 02:55:24;;;;;;;1.10;0.50;;;21.10;99.90;;;;;;5077896;28;20484;-59
2023/07/17 02:57:51;;;;;;;1.10;0.50;;;21.20;99.90;;;;;;5077855;28;20787;-60
2023/07/17 03:00:19;;;;;;;1.50;0.50;;;21.30;99.90;;;;;;5077799;28;20473;-60
2023/07/17 03:02:48;;;;;;;1.00;0.50;;;21.40;99.90;;;;;;5077413;28;20433;-60
2023/07/17 03:05:15;;;;;;;0.82;0.50;;;21.50;99.90;;;;;;5078131;28;20455;-60
2023/07/17 03:07:46;;;;;;;0.95;0.60;;;21.50;99.90;;;;;;5077956;28;20838;-60
2023/07/17 03:10:13;;;;;;;0.75;0.60;;;21.50;99.90;;;;;;5077586;28;20511;-60
2023/07/17 03:12:41;;;;;;;0.93;0.50;;;21.60;99.90;;;;;;5077467;28;20430;-59
2023/07/17 03:15:09;;;;;;;0.83;0.50;;;21.50;99.90;;;;;;5077533;28;20474;-59
2023/07/17 03:17:36;;;;;;;0.70;0.50;;;21.50;99.90;;;;;;5076956;28;20782;-60
2023/07/17 03:20:06;;;;;;;0.70;0.50;;;21.50;99.90;;;;;;5075822;28;20841;-59
2023/07/17 03:22:33;;;;;;;0.90;0.50;;;21.50;99.90;;;;;;5077546;28;20916;-60
2023/07/17 03:25:02;;;;;;;0.80;0.50;;;21.50;99.90;;;;;;5077193;28;20988;-59
2023/07/17 03:27:29;;;;;;;1.20;0.50;;;21.50;99.90;;;;;;5076597;28;20434;-61
2023/07/17 03:29:56;;;;;;;1.23;0.50;;;21.50;99.90;;;;;;5076362;28;20446;-60
2023/07/17 03:32:23;;;;;;;0.90;0.60;;;21.40;99.90;;;;;;5077034;28;20424;-60
2023/07/17 03:34:50;;;;;;;2.05;0.60;;;21.40;99.90;;;;;;5076629;28;20453;-60
2023/07/17 03:37:17;;;;;;;1.15;0.50;;;21.40;99.90;;;;;;5077346;28;20489;-60
2023/07/17 03:39:44;;;;;;;1.65;0.65;;;21.40;99.90;;;;;;5076228;28;20489;-61
2023/07/17 03:42:13;;;;;;;0.90;0.50;;;21.40;99.90;;;;;;5076678;28;20427;-60
2023/07/17 03:44:40;;;;;;;1.10;0.50;;;21.50;99.90;;;;;;5076726;28;20427;-60
2023/07/17 03:47:07;;;;;;;1.30;0.50;;;21.50;99.90;;;;;;5076121;28;20485;-60
2023/07/17 03:49:35;;;;;;;1.63;0.60;;;21.50;99.90;;;;;;5076945;28;20427;-60
2023/07/17 03:52:02;;;;;;;0.98;0.55;;;21.40;99.90;;;;;;5076182;28;20438;-60
2023/07/17 03:54:29;;;;;;;1.40;0.50;;;21.40;99.90;;;;;;5076050;28;20427;-61
2023/07/17 03:56:56;;;;;;;0.80;0.60;;;21.50;99.90;;;;;;5075527;28;20481;-61
2023/07/17 03:59:25;;;;;;;0.90;0.60;;;21.40;99.90;;;;;;5075139;28;20443;-61
2023/07/17 04:01:52;;;;;;;0.90;0.50;;;21.30;99.90;;;;;;5075780;28;20431;-61
2023/07/17 04:04:20;;;;;;;1.20;0.60;;;21.30;99.90;;;;;;5075019;28;20436;-59
2023/07/17 04:06:47;;;;;;;2.40;0.60;;;21.20;99.90;;;;;;5074262;28;20419;-59
2023/07/17 04:09:15;;;;;;;1.63;0.50;;;21.20;99.90;;;;;;5075704;28;20445;-58
2023/07/17 04:11:42;;;;;;;1.70;0.60;;;21.10;99.90;;;;;;5073356;28;20423;-57
2023/07/17 04:14:11;;;;;;;0.88;0.50;;;21.10;99.90;;;;;;5074252;28;20800;-58
2023/07/17 04:16:39;;;;;;;1.10;0.60;;;21.00;99.90;;;;;;5074447;28;20484;-58
2023/07/17 04:19:06;;;;;;;1.60;0.60;;;21.00;99.90;;;;;;5074946;28;20496;-60
2023/07/17 04:21:33;;;;;;;1.60;0.57;;;21.00;99.90;;;;;;5075465;28;20489;-59
2023/07/17 04:24:00;;;;;;;1.20;0.65;;;21.00;99.90;;;;;;5075228;28;20412;-60
2023/07/17 04:26:27;;;;;;;1.70;0.77;;;21.00;99.90;;;;;;5075507;28;20419;-59
2023/07/17 04:28:54;;;;;;;2.60;0.60;;;20.90;99.90;;;;;;5071752;28;20475;-60
2023/07/17 04:31:21;;;;;;;1.73;0.70;;;20.90;99.90;;;;;;5055290;28;20845;-59
2023/07/17 04:33:49;;;;;;;1.38;0.60;;;20.90;99.90;;;;;;5055825;28;20432;-60
2023/07/17 04:36:16;;;;;;;1.20;0.63;;;20.80;99.90;;;;;;5055609;28;20429;-59
2023/07/17 04:38:43;;;;;;;1.90;0.50;;;20.80;99.90;;;;;;5055475;28;20429;-60
2023/07/17 04:41:10;;;;;;;2.07;0.53;;;20.80;99.90;;;;;;5055127;28;20429;-59
2023/07/17 04:43:37;;;;;;;2.90;0.70;;;20.80;99.90;;;;;;5054397;28;20437;-59
2023/07/17 04:46:04;;;;;;;2.33;0.60;;;20.80;99.90;;;;;;5053786;28;20592;-60
2023/07/17 04:48:31;;;;;;;0.85;0.55;;;20.80;99.90;;;;;;5053693;28;20472;-59
2023/07/17 04:51:00;;;;;;;1.77;0.50;;;20.70;99.90;;;;;;5052177;28;20424;-59
2023/07/17 04:53:27;;;;;;;1.10;0.50;;;20.70;99.90;;;;;;5051789;28;20424;-59
2023/07/17 04:55:54;;;;;;;1.02;0.52;;;20.70;99.90;;;;;;5051398;28;20484;-59
2023/07/17 04:58:21;;;;;;;1.50;0.60;;;20.70;1.00;;;;;;5052437;28;20441;-59
2023/07/17 05:00:48;;;;;;;0.98;0.63;;;20.60;1.00;;;;;;5053337;28;20486;-59
2023/07/17 05:03:16;;;;;;;1.43;0.70;;;20.50;1.00;;;;;;5054079;28;20429;-59
2023/07/17 05:05:48;;;;;;;1.40;0.60;;;20.50;1.00;;;;;;5052310;28;21024;-59
2023/07/17 05:08:17;;;;;;;1.70;0.60;;;20.50;92.20;;;;;;5052126;28;20425;-59
2023/07/17 05:10:44;;;;;;;1.20;0.60;;;20.70;99.90;;;;;;5052568;28;20690;-59
2023/07/17 05:13:11;;;;;;;1.40;0.55;;;21.00;30.90;;;;;;5052922;28;20499;-59
2023/07/17 05:15:42;;;;;;;1.23;0.50;;;21.30;1.00;;;;;;5052784;28;20460;-59
2023/07/17 05:18:09;;;;;;;1.43;0.50;;;21.50;1.00;;;;;;5052517;28;20437;-60
2023/07/17 05:20:36;;;;;;;1.70;0.60;;;21.50;1.00;;;;;;5050663;28;20478;-60
2023/07/17 05:23:03;;;;;;;1.75;0.60;;;21.30;1.00;;;;;;5052653;28;20508;-60
2023/07/17 05:25:32;;;;;;;1.08;0.63;;;21.10;1.00;;;;;;5052440;28;20487;-60
2023/07/17 05:27:59;;;;;;;1.58;0.60;;;21.00;23.40;;;;;;5051778;28;20436;-60
2023/07/17 05:30:25;;;;;;;1.27;0.70;;;20.90;99.90;;;;;;5052615;28;20437;-60
2023/07/17 05:32:52;;;;;;;1.00;0.60;;;20.90;99.90;;;;;;5052974;28;20547;-59
2023/07/17 05:35:19;;;;;;;1.15;0.60;;;20.80;99.90;;;;;;5052988;28;20480;-59
2023/07/17 05:37:46;;;;;;;1.60;0.60;;;20.90;99.90;;;;;;5051926;28;20428;-59
2023/07/17 05:40:13;;;;;;;1.70;0.70;;;21.00;99.90;;;;;;5053321;28;20433;-59
2023/07/17 05:42:42;;;;;;;1.50;0.63;;;21.10;99.90;;;;;;5051432;28;20428;-60
2023/07/17 05:45:10;;;;;;;1.05;0.60;;;21.20;99.90;;;;;;5054049;28;20441;-61
2023/07/17 05:47:37;;;;;;;2.28;0.60;;;21.30;99.90;;;;;;5052586;28;20515;-60
2023/07/17 05:50:05;;;;;;;1.10;0.60;;;21.30;99.90;;;;;;5053943;28;20433;-59
2023/07/17 05:52:32;;;;;;;1.67;0.60;;;21.20;99.90;;;;;;5051139;28;20433;-59
2023/07/17 05:54:59;;;;;;;1.90;0.60;;;21.10;99.90;;;;;;5051824;28;20436;-59
2023/07/17 05:57:26;;;;;;;1.85;0.80;;;21.10;99.90;;;;;;5051951;28;20537;-61
2023/07/17 05:59:54;;;;;;;1.30;0.60;;;21.00;99.90;;;;;;5052427;28;20437;-61
2023/07/17 06:02:21;;;;;;;3.60;0.80;;;21.00;1.00;;;;;;5052291;28;20848;-61
2023/07/17 06:04:48;;;;;;;1.20;0.70;;;21.00;1.00;;;;;;5053858;28;20486;-61
2023/07/17 06:07:15;;;;;;;1.10;0.60;;;21.00;1.00;;;;;;5063957;28;20439;-60
2023/07/17 06:09:42;;;;;;;1.23;0.60;;;21.00;1.00;;;;;;5071993;28;20480;-60
2023/07/17 06:12:09;;;;;;;1.52;0.60;;;21.00;1.00;;;;;;5064220;28;20969;-61
2023/07/17 06:14:36;;;;;;;1.00;0.60;;;21.10;99.90;;;;;;5071419;28;20427;-61
2023/07/17 06:17:05;;;;;;;1.20;0.60;;;21.30;99.90;;;;;;5072697;28;20485;-61
2023/07/17 06:19:32;;;;;;;1.02;0.60;;;21.30;99.90;;;;;;5070320;28;20435;-60
2023/07/17 06:22:00;;;;;;;1.37;0.80;;;21.40;1.00;;;;;;5067951;28;20443;-63
2023/07/17 06:24:27;;;;;;;1.30;0.60;;;21.50;1.00;;;;;;5071169;28;20530;-61
2023/07/17 06:26:54;;;;;;;0.90;0.50;;;21.50;1.00;;;;;;5068826;28;20457;-60
2023/07/17 06:29:21;;;;;;;1.58;0.60;;;21.60;1.00;;;;;;5068499;28;20439;-61
2023/07/17 06:31:47;;;;;;;1.95;0.65;;;21.70;1.00;;;;;;5069914;28;20489;-61
2023/07/17 06:34:16;;;;;;;0.90;0.60;;;21.90;99.90;;;;;;5071253;28;20738;-61
2023/07/17 06:36:43;;;;;;;1.80;0.60;;;21.90;99.90;;;;;;5068774;28;20814;-61
2023/07/17 06:39:10;;;;;;;2.15;0.60;;;22.00;99.90;;;;;;5068400;28;20790;-61
2023/07/17 06:41:37;;;;;;;1.15;0.70;;;22.20;99.90;;;;;;5070786;28;20419;-61
2023/07/17 06:44:04;;;;;;;0.80;0.60;;;22.30;99.90;;;;;;5071185;28;20439;-61
2023/07/17 06:46:31;;;;;;;1.50;0.60;;;22.50;99.90;;;;;;5069631;28;20439;-61
2023/07/17 06:48:58;;;;;;;1.90;0.60;;;22.70;99.90;;;;;;5071234;28;20481;-61
2023/07/17 06:51:27;;;;;;;2.15;0.60;;;22.80;97.90;;;;;;5067810;28;20454;-61
2023/07/17 06:53:54;;;;;;;1.03;0.60;;;22.70;64.80;;;;;;5070729;28;20477;-61
2023/07/17 06:56:21;;;;;;;1.50;0.60;;;22.70;57.80;;;;;;5067239;28;20439;-62
2023/07/17 06:58:48;;;;;;;1.33;0.60;;;22.70;69.20;;;;;;5070001;28;20428;-61
2023/07/17 07:01:15;;;;;;;1.30;0.60;;;22.80;40.40;;;;;;5066212;28;20924;-62
2023/07/17 07:03:43;;;;;;;1.20;0.55;;;22.80;8.50;;;;;;5069504;28;20866;-62
2023/07/17 07:06:10;;;;;;;1.00;0.60;;;22.90;1.00;;;;;;5069738;28;20439;-62
2023/07/17 07:08:38;;;;;;;1.40;0.60;;;23.00;1.00;;;;;;5074850;28;20473;-61
2023/07/17 07:11:05;;;;;;;1.58;0.70;;;23.20;1.00;;;;;;5074857;28;20435;-60
2023/07/17 07:13:32;;;;;;;1.00;0.70;;;23.30;1.00;;;;;;5071157;28;20431;-62
2023/07/17 07:15:59;;;;;;;1.17;0.80;;;23.30;1.00;;;;;;5070023;28;20699;-61
2023/07/17 07:18:26;;;;;;;2.70;0.80;;;23.30;1.00;;;;;;5072119;28;20552;-61
2023/07/17 07:20:53;;;;;;;1.90;0.70;;;23.40;1.00;;;;;;5072974;28;20423;-61
2023/07/17 07:23:21;;;;;;;2.30;0.80;;;23.40;1.00;;;;;;5071131;28;20439;-61
2023/07/17 07:25:49;;;;;;;2.40;0.70;;;23.50;1.00;;;;;;5072814;28;20443;-61
2023/07/17 07:28:16;;;;;;;1.40;0.73;;;23.60;1.00;;;;;;5062045;28;20433;-61
2023/07/17 07:30:43;;;;;;;1.50;0.80;;;23.50;1.00;;;;;;5070279;28;20435;-60
2023/07/17 07:33:10;;;;;;;2.40;0.75;;;23.50;1.00;;;;;;5073797;28;20916;-61
2023/07/17 07:35:37;;;;;;;1.10;0.70;;;23.40;1.00;;;;;;5072375;28;20463;-61
2023/07/17 07:38:04;;;;;;;1.40;0.70;;;23.50;1.00;;;;;;5072511;28;20435;-60
2023/07/17 07:40:31;;;;;;;1.77;0.80;;;23.60;1.00;;;;;;5073302;28;20486;-61
2023/07/17 07:43:00;;;;;;;2.92;0.80;;;23.80;1.00;;;;;;5070675;28;20779;-61
2023/07/17 07:45:26;;;;;;;1.40;0.70;;;23.80;1.00;;;;;;5074046;28;20492;-61
2023/07/17 07:47:54;;;;;;;1.50;0.80;;;23.90;1.00;;;;;;5074565;28;20481;-61
2023/07/17 07:50:22;;;;;;;1.67;0.80;;;23.80;1.00;;;;;;5074964;28;20477;-61
2023/07/17 07:52:49;;;;;;;1.30;0.80;;;23.90;1.00;;;;;;5070383;28;20443;-59
2023/07/17 07:55:16;;;;;;;1.40;0.80;;;24.00;1.00;;;;;;5066490;28;20439;-59
2023/07/17 07:57:43;;;;;;;2.40;0.80;;;23.90;1.00;;;;;;5071454;28;20436;-58
2023/07/17 08:00:13;;;;;;;1.60;0.80;;;24.00;1.00;;;;;;5072346;28;20461;-60
2023/07/17 08:02:40;;;;;;;2.20;0.90;;;24.20;1.00;;;;;;5069109;28;20435;-59
2023/07/17 08:05:08;;;;;;;1.50;0.80;;;24.30;1.00;;;;;;5052607;28;20440;-58
2023/07/17 08:07:35;;;;;;;2.30;0.70;;;24.10;1.00;;;;;;5059886;28;20519;-59
2023/07/17 08:10:03;;;;;;;2.38;0.80;;;24.10;1.00;;;;;;5070379;28;20435;-59
2023/07/17 08:12:31;;;;;;;2.15;0.80;;;24.10;1.00;;;;;;5069797;28;20512;-59
2023/07/17 08:14:58;;;;;;;1.50;0.70;;;24.00;1.00;;;;;;5071497;28;20815;-60
2023/07/17 08:17:26;;;;;;;1.60;0.80;;;24.20;1.00;;;;;;5071512;28;20725;-59
2023/07/17 08:19:53;;;;;;;1.30;0.80;;;24.40;1.00;;;;;;5072012;28;20546;-59
2023/07/17 08:22:20;;;;;;;1.50;0.82;;;24.60;1.00;;;;;;5069979;28;20498;-59
2023/07/17 08:24:47;;;;;;;1.70;0.80;;;24.60;1.00;;;;;;5072304;28;20443;-59
2023/07/17 08:27:14;;;;;;;1.85;0.80;;;24.70;1.00;;;;;;5074005;28;20501;-59
2023/07/17 08:29:41;;;;;;;3.08;0.80;;;24.70;1.00;;;;;;5072094;28;20940;-60
2023/07/17 08:32:09;;;;;;;1.70;0.70;;;24.80;1.00;;;;;;5069892;28;20443;-59
2023/07/17 08:34:38;;;;;;;2.20;0.70;;;25.10;1.00;;;;;;5072685;28;20432;-60
2023/07/17 08:37:05;;;;;;;1.80;0.80;;;25.20;1.00;;;;;;5072106;28;20431;-60
2023/07/17 08:39:32;;;;;;;1.80;0.70;;;25.50;1.00;;;;;;5073524;28;20439;-60
2023/07/17 08:41:59;;;;;;;1.10;0.70;;;25.40;1.00;;;;;;5072403;28;20427;-60
2023/07/17 08:44:27;;;;;;;1.20;0.80;;;25.60;1.00;;;;;;5073649;28;20435;-59
2023/07/17 08:46:55;;;;;;;2.00;0.95;;;25.70;1.00;;;;;;5074817;28;20431;-56
2023/07/17 08:49:24;;;;;;;2.20;0.70;;;25.80;1.00;;;;;;5071865;28;20423;-50
2023/07/17 08:51:54;;;;;;;2.90;0.70;;;25.60;1.00;;;;;;5072760;28;20441;-52
2023/07/17 08:54:22;;;;;;;1.60;0.80;;;26.00;1.00;;;;;;5073384;28;20489;-51
2023/07/17 08:56:49;;;;;;;1.50;1.00;;;25.70;1.00;;;;;;5072288;28;20705;-54
2023/07/17 08:59:17;;;;;;;1.50;0.90;;;25.70;1.00;;;;;;5070831;28;20470;-55
2023/07/17 09:01:45;;;;;;;1.95;0.80;;;25.70;1.00;;;;;;5072157;28;20503;-55
2023/07/17 09:04:14;;;;;;;1.63;0.90;;;25.80;1.00;;;;;;5071557;28;20481;-55
2023/07/17 09:06:41;;;;;;;1.50;0.70;;;25.60;1.00;;;;;;5070565;28;20924;-57
2023/07/17 09:09:10;;;;;;;1.23;0.80;;;25.60;1.00;;;;;;5070471;28;20459;-56
2023/07/17 09:11:37;;;;;;;1.52;0.80;;;25.90;1.00;;;;;;5070962;28;20426;-57
2023/07/17 09:14:04;;;;;;;2.10;0.70;;;26.10;1.00;;;;;;5069345;28;20714;-56
2023/07/17 09:16:31;;;;;;;1.73;0.90;;;26.00;1.00;;;;;;5071392;28;20923;-57
2023/07/17 09:19:00;;;;;;;1.67;0.80;;;25.90;1.00;;;;;;5069769;28;20855;-57
2023/07/17 09:21:27;;;;;;;2.53;0.90;;;25.80;1.00;;;;;;5071667;28;20447;-57
2023/07/17 09:23:56;;;;;;;2.13;1.40;;;25.80;1.00;;;;;;5073173;28;20412;-56
2023/07/17 09:26:28;;;;;;;0.90;0.70;;;25.90;1.00;;;;;;5073590;28;20484;-57
2023/07/17 09:28:56;;;;;;;1.98;0.90;;;25.90;1.00;;;;;;5068497;28;20802;-53
2023/07/17 09:31:25;;;;;;;1.38;0.88;;;25.70;1.00;;;;;;5070820;28;20947;-57
2023/07/17 09:33:53;;;;;;;1.17;0.70;;;26.10;1.00;;;;;;5067157;28;20926;-56
2023/07/17 09:36:21;;;;;;;2.00;0.80;;;26.50;1.00;;;;;;5070222;28;20439;-55
2023/07/17 09:38:51;;;;;;;2.95;0.90;;;26.40;1.00;;;;;;5071356;28;20506;-56
2023/07/17 09:41:19;;;;;;;1.70;0.70;;;26.30;1.00;;;;;;5069989;28;20431;-57
2023/07/17 09:43:54;;;;;;;1.70;0.90;;;26.10;1.00;;;;;;5070735;28;21035;-56
2023/07/17 09:46:22;;;;;;;1.58;1.10;;;26.00;1.00;;;;;;5073078;28;20924;-57
2023/07/17 09:48:53;;;;;;;1.73;0.80;;;26.10;1.00;;;;;;5063158;28;20467;-58
2023/07/17 09:51:21;;;;;;;2.10;0.80;;;26.20;1.00;;;;;;5069948;28;20517;-57
2023/07/17 09:53:49;;;;;;;1.63;0.80;;;26.60;1.00;;;;;;5068791;28;20407;-55
2023/07/17 09:56:18;;;;;;;2.17;0.80;;;26.80;1.00;;;;;;5054748;28;20501;-56
2023/07/17 09:58:47;;;;;;;1.60;0.90;;;26.70;1.00;;;;;;5068439;28;20859;-57
2023/07/17 10:01:18;;;;;;;1.30;0.80;;;26.80;1.00;;;;;;5068611;28;20847;-55
2023/07/17 10:03:46;;;;;;;1.17;0.70;;;26.70;1.00;;;;;;5067927;28;20430;-58
2023/07/17 10:06:15;;;;;;;1.90;0.80;;;26.70;1.00;;;;;;5071509;28;20863;-60
2023/07/17 10:08:46;;;;;;;1.50;0.70;;;26.90;1.00;;;;;;5072203;28;20435;-58
2023/07/17 10:11:15;;;;;;;1.63;0.80;;;27.00;1.00;;;;;;5067924;28;20517;-58
2023/07/17 10:13:43;;;;;;;1.90;0.80;;;26.80;1.00;;;;;;5069504;28;20731;-58
2023/07/17 10:16:11;;;;;;;1.58;0.95;;;26.50;1.00;;;;;;5067828;28;20443;-58
2023/07/17 10:18:49;;;;;;;1.70;0.70;;;26.60;1.00;;;;;;5068634;28;20952;-58
2023/07/17 10:21:18;;;;;;;1.48;0.80;;;26.70;1.00;;;;;;5067986;28;20446;-58
2023/07/17 10:23:46;;;;;;;1.80;0.80;;;26.50;1.00;;;;;;5070768;28;20473;-56
2023/07/17 10:26:14;;;;;;;1.45;0.90;;;26.20;1.00;;;;;;5068612;28;20435;-57
2023/07/17 10:28:42;;;;;;;1.50;0.90;;;26.40;1.00;;;;;;5053939;28;20436;-56
2023/07/17 10:31:11;;;;;;;1.80;0.80;;;26.60;1.00;;;;;;5067861;28;20435;-57
2023/07/17 10:33:39;;;;;;;1.50;0.80;;;26.50;1.00;;;;;;5059200;28;20425;-58
2023/07/17 10:36:14;;;;;;;1.90;1.00;;;26.60;1.00;;;;;;5076209;28;20423;-57
2023/07/17 10:38:42;;;;;;;1.90;0.80;;;26.60;1.00;;;;;;5091305;28;20422;-58
2023/07/17 10:41:25;;;;;;;2.75;0.90;;;26.50;1.00;;;;;;5090904;28;20460;-57
2023/07/17 10:43:54;;;;;;;1.80;0.90;;;26.70;1.00;;;;;;5091129;28;20429;-57
2023/07/17 10:46:27;;;;;;;2.03;0.90;;;26.70;1.00;;;;;;5088845;28;20429;-57
2023/07/17 10:48:54;;;;;;;3.50;0.80;;;27.10;1.00;;;;;;5089073;28;20478;-60
2023/07/17 10:51:28;;;;;;;1.40;0.90;;;27.20;1.00;;;;;;5092084;28;20932;-58
2023/07/17 10:53:57;;;;;;;2.05;0.90;;;26.80;1.00;;;;;;5080601;28;20420;-58
2023/07/17 10:56:25;;;;;;;1.70;0.80;;;26.50;1.00;;;;;;5071044;28;20629;-58
2023/07/17 10:58:53;;;;;;;2.10;0.90;;;26.30;1.00;;;;;;5074296;28;20544;-58
2023/07/17 11:01:20;;;;;;;1.60;0.80;;;26.20;1.00;;;;;;5073905;28;20458;-58
2023/07/17 11:03:48;;;;;;;2.60;0.80;;;26.30;1.00;;;;;;5073303;28;20877;-59
2023/07/17 11:06:16;;;;;;;1.10;0.77;;;26.60;1.00;;;;;;5073624;28;20518;-59
2023/07/17 11:08:48;;;;;;;1.10;0.70;;;26.80;1.00;;;;;;5073648;28;20426;-58
2023/07/17 11:11:15;;;;;;;1.13;0.80;;;27.10;1.00;;;;;;5073289;28;20744;-57
2023/07/17 11:13:44;;;;;;;1.15;0.80;;;27.60;1.00;;;;;;5072496;28;20431;-58
2023/07/17 11:16:12;;;;;;;1.35;0.90;;;27.70;1.00;;;;;;5073763;28;20807;-57
2023/07/17 11:18:46;;;;;;;1.90;0.90;;;27.90;1.00;;;;;;5074284;28;20423;-57
2023/07/17 11:21:14;;;;;;;1.77;0.90;;;28.20;1.00;;;;;;5074114;28;20870;-57
2023/07/17 11:23:50;;;;;;;1.70;0.87;;;28.60;1.00;;;;;;5074154;28;20408;-57
2023/07/17 11:26:19;;;;;;;1.48;0.80;;;28.90;1.00;;;;;;5073662;28;20725;-57
2023/07/17 11:28:49;;;;;;;1.60;0.80;;;29.50;1.00;;;;;;5074934;28;20747;-57
2023/07/17 11:31:21;;;;;;;2.50;0.80;;;29.90;1.00;;;;;;5073825;28;20859;-59
2023/07/17 11:33:56;;;;;;;1.00;0.70;;;29.50;1.00;;;;;;5073729;28;20870;-58
2023/07/17 11:36:23;;;;;;;1.70;0.80;;;29.60;1.00;;;;;;5074189;28;20485;-58
2023/07/17 11:38:52;;;;;;;1.50;0.90;;;29.20;1.00;;;;;;5073725;28;20427;-58
2023/07/17 11:41:19;;;;;;;1.88;0.80;;;29.30;1.00;;;;;;5071214;28;20435;-56
2023/07/17 11:43:57;;;;;;;1.25;0.73;;;29.40;1.00;;;;;;5069313;28;20440;-57
2023/07/17 11:46:24;;;;;;;2.33;0.80;;;29.60;1.00;;;;;;5070561;28;20791;-58
2023/07/17 11:48:54;;;;;;;2.07;0.90;;;29.70;1.00;;;;;;5071505;28;20438;-57
2023/07/17 11:51:24;;;;;;;1.20;0.80;;;29.50;1.00;;;;;;5072285;28;20743;-57
2023/07/17 11:53:55;;;;;;;1.35;0.80;;;29.20;1.00;;;;;;5073601;28;20427;-57
2023/07/17 11:56:33;;;;;;;2.25;0.90;;;29.20;1.00;;;;;;5053479;28;20455;-55
2023/07/17 11:59:00;;;;;;;0.90;0.70;;;28.80;1.00;;;;;;5052785;28;20429;-57
2023/07/17 12:01:27;;;;;;;2.00;0.80;;;28.70;1.00;;;;;;5064036;28;20458;-55
2023/07/17 12:03:54;;;;;;;1.37;0.87;;;28.70;1.00;;;;;;5073164;28;20816;-57
2023/07/17 12:06:21;;;;;;;1.40;0.80;;;28.90;1.00;;;;;;5070638;28;20446;-57
2023/07/17 12:08:48;;;;;;;1.50;0.90;;;28.80;1.00;;;;;;5070225;28;20454;-57
2023/07/17 12:11:16;;;;;;;1.27;0.80;;;28.70;1.00;;;;;;5073653;28;20815;-57
2023/07/17 12:13:43;;;;;;;3.10;1.00;;;28.70;1.00;;;;;;5055620;28;20441;-57
2023/07/17 12:16:11;;;;;;;1.52;0.90;;;28.70;1.00;;;;;;5063189;28;20481;-56
2023/07/17 12:18:38;;;;;;;1.20;0.80;;;28.70;1.00;;;;;;5072330;28;20763;-57
2023/07/17 12:21:05;;;;;;;1.40;0.80;;;29.00;1.00;;;;;;5075020;28;20443;-57
2023/07/17 12:23:32;;;;;;;1.95;1.10;;;29.70;1.00;;;;;;5074596;28;20415;-57
2023/07/17 12:25:59;;;;;;;1.55;0.80;;;30.10;1.00;;;;;;5074815;28;20850;-57
2023/07/17 12:28:31;;;;;;;1.30;0.80;;;29.90;1.00;;;;;;5073459;28;20454;-57
2023/07/17 12:30:58;;;;;;;1.50;0.75;;;29.50;1.00;;;;;;5071830;28;20434;-56
2023/07/17 12:33:25;;;;;;;1.20;0.80;;;29.10;1.00;;;;;;5072855;28;20427;-57
2023/07/17 12:35:52;;;;;;;1.50;0.80;;;28.60;1.00;;;;;;5072777;28;20423;-56
2023/07/17 12:38:19;;;;;;;1.35;0.80;;;28.50;1.00;;;;;;5073409;28;20415;-55
2023/07/17 12:40:47;;;;;;;1.10;0.80;;;28.40;1.00;;;;;;5072354;28;20447;-57
2023/07/17 12:43:14;;;;;;;2.58;0.80;;;28.60;1.00;;;;;;5072539;28;20739;-56
2023/07/17 12:45:42;;;;;;;1.40;0.70;;;28.90;1.00;;;;;;5072582;28;20457;-56
2023/07/17 12:48:10;;;;;;;1.40;0.70;;;28.80;1.00;;;;;;5072892;28;20420;-57
2023/07/17 12:50:37;;;;;;;1.77;0.70;;;28.70;1.00;;;;;;5076858;28;20447;-58
2023/07/17 12:53:05;;;;;;;1.77;0.80;;;29.20;1.00;;;;;;5074588;28;20424;-56
2023/07/17 12:55:32;;;;;;;1.00;0.70;;;29.20;1.00;;;;;;5056529;28;20429;-56